Larned, Kansas
Current Conditions -  °F | °C
As of 7:15 PM on Thursday 27 Nov 2014 (Local Time) from KGBD Reporting Station
Clear Clear  
Wind Chill: 31°   Ceiling: Unl
Heat Index: 39°   Visibility: 10mi
Dew Point: 19°   Wind: 15mph
Humidity: 45%   Direction: 150°SSE
Pressure: 30.16"   Gusts: NA
Location:  38.18°N, 99.1°W
Report Text: KGBD 280115Z AUTO 15013KT 10SM CLR 04/M07 A3016 RMK AO1
Loading
Personal Weather Stations






























Interactive Weather Map New forecast layout! Learn more

10-Day Weather Forecast

Advertisements
Track Severe Weather on mobile